Duquesne, Missouri
Current Conditions -  °F | °C
As of 2:53 PM on Thursday 27 Nov 2014 (Local Time) from KJLN Reporting Station
Clear Clear  
Wind Chill: 42°   Ceiling: Unl
Heat Index: 42°   Visibility: 10mi
Dew Point: 20°   Wind: 3mph
Humidity: 41%   Direction: 170°S
Pressure: 30.44"   Gusts: NA
Location:  37.1074°N, 94.5218°W
Report Text: KJLN 272053Z 17003KT 10SM CLR 06/M07 A3044 RMK AO2 SLP315 T00561067 58026
Loading
Personal Weather Stations






























Interactive Weather Map New forecast layout! Learn more

10-Day Weather Forecast

Advertisements
Track Severe Weather on mobile